sensor_id;sensor_type;location;lat;lon;timestamp;P1;durP1;ratioP1;P2;durP2;ratioP2
63120;SDS011;54478;48.684;20.114;2023-05-15T12:56:08;6.68;;;4.15;;
63120;SDS011;54478;48.684;20.114;2023-05-15T12:58:37;7.90;;;4.60;;
63120;SDS011;54478;48.684;20.114;2023-05-15T13:01:05;7.60;;;4.25;;
63120;SDS011;54478;48.684;20.114;2023-05-15T13:03:34;8.82;;;4.30;;
63120;SDS011;54478;48.684;20.114;2023-05-15T13:06:02;5.30;;;3.58;;
63120;SDS011;54478;48.684;20.114;2023-05-15T13:08:30;6.43;;;4.13;;
63120;SDS011;54478;48.684;20.114;2023-05-15T13:10:59;8.65;;;4.90;;
63120;SDS011;54478;48.684;20.114;2023-05-15T13:13:44;6.28;;;3.90;;
63120;SDS011;54478;48.684;20.114;2023-05-15T13:16:21;8.55;;;4.35;;
63120;SDS011;54478;48.684;20.114;2023-05-15T13:18:49;8.55;;;6.82;;
63120;SDS011;54478;48.684;20.114;2023-05-15T13:21:18;9.52;;;4.30;;
63120;SDS011;54478;48.684;20.114;2023-05-15T13:23:46;14.38;;;4.53;;
63120;SDS011;54478;48.684;20.114;2023-05-15T13:26:15;8.27;;;4.85;;
63120;SDS011;54478;48.684;20.114;2023-05-15T13:28:43;7.55;;;4.70;;
63120;SDS011;54478;48.684;20.114;2023-05-15T13:31:11;7.60;;;4.60;;
63120;SDS011;54478;48.684;20.114;2023-05-15T13:33:40;6.82;;;4.38;;
63120;SDS011;54478;48.684;20.114;2023-05-15T13:36:08;9.32;;;4.65;;
63120;SDS011;54478;48.684;20.114;2023-05-15T13:38:37;8.25;;;5.07;;
63120;SDS011;54478;48.684;20.114;2023-05-15T13:41:05;6.30;;;4.05;;
63120;SDS011;54478;48.684;20.114;2023-05-15T13:43:34;7.85;;;4.50;;
63120;SDS011;54478;48.684;20.114;2023-05-15T13:46:02;8.27;;;4.15;;
63120;SDS011;54478;48.684;20.114;2023-05-15T13:48:30;7.38;;;4.03;;
63120;SDS011;54478;48.684;20.114;2023-05-15T13:50:59;7.30;;;4.07;;
63120;SDS011;54478;48.684;20.114;2023-05-15T13:53:27;8.52;;;4.15;;
63120;SDS011;54478;48.684;20.114;2023-05-15T13:55:55;10.15;;;4.45;;
63120;SDS011;54478;48.684;20.114;2023-05-15T13:58:24;18.65;;;4.90;;
63120;SDS011;54478;48.684;20.114;2023-05-15T14:00:53;9.13;;;5.72;;
63120;SDS011;54478;48.684;20.114;2023-05-15T14:03:21;13.05;;;5.57;;
63120;SDS011;54478;48.684;20.114;2023-05-15T14:05:49;11.43;;;5.50;;
63120;SDS011;54478;48.684;20.114;2023-05-15T14:08:18;9.55;;;5.38;;
63120;SDS011;54478;48.684;20.114;2023-05-15T14:10:46;7.53;;;4.72;;
63120;SDS011;54478;48.684;20.114;2023-05-15T14:13:15;18.48;;;5.72;;
63120;SDS011;54478;48.684;20.114;2023-05-15T14:15:43;9.43;;;4.38;;
63120;SDS011;54478;48.684;20.114;2023-05-15T14:18:11;8.57;;;4.88;;
63120;SDS011;54478;48.684;20.114;2023-05-15T14:20:40;10.43;;;4.47;;
63120;SDS011;54478;48.684;20.114;2023-05-15T14:23:08;7.18;;;4.43;;
63120;SDS011;54478;48.684;20.114;2023-05-15T14:25:36;10.25;;;4.85;;
63120;SDS011;54478;48.684;20.114;2023-05-15T14:28:04;11.52;;;5.40;;
63120;SDS011;54478;48.684;20.114;2023-05-15T14:30:33;10.45;;;5.10;;
63120;SDS011;54478;48.684;20.114;2023-05-15T14:33:01;9.18;;;5.90;;
63120;SDS011;54478;48.684;20.114;2023-05-15T14:35:30;11.20;;;5.93;;
63120;SDS011;54478;48.684;20.114;2023-05-15T14:37:58;10.95;;;5.63;;
63120;SDS011;54478;48.684;20.114;2023-05-15T14:40:26;7.82;;;5.88;;
63120;SDS011;54478;48.684;20.114;2023-05-15T14:42:54;9.40;;;5.35;;
63120;SDS011;54478;48.684;20.114;2023-05-15T14:45:23;9.23;;;5.95;;
63120;SDS011;54478;48.684;20.114;2023-05-15T14:47:51;9.88;;;6.60;;
63120;SDS011;54478;48.684;20.114;2023-05-15T14:50:19;11.43;;;6.65;;
63120;SDS011;54478;48.684;20.114;2023-05-15T14:52:47;11.43;;;6.13;;
63120;SDS011;54478;48.684;20.114;2023-05-15T14:55:13;8.73;;;6.60;;
63120;SDS011;54478;48.684;20.114;2023-05-15T14:57:41;9.98;;;6.93;;
63120;SDS011;54478;48.684;20.114;2023-05-15T15:00:16;8.80;;;6.05;;
63120;SDS011;54478;48.684;20.114;2023-05-15T15:02:42;8.80;;;6.00;;
63120;SDS011;54478;48.684;20.114;2023-05-15T15:05:11;10.85;;;6.85;;
63120;SDS011;54478;48.684;20.114;2023-05-15T15:10:35;10.13;;;7.47;;
63120;SDS011;54478;48.684;20.114;2023-05-15T15:13:02;11.40;;;7.40;;
63120;SDS011;54478;48.684;20.114;2023-05-15T15:15:31;12.00;;;7.38;;
63120;SDS011;54478;48.684;20.114;2023-05-15T15:17:58;10.85;;;6.15;;
63120;SDS011;54478;48.684;20.114;2023-05-15T15:20:24;9.45;;;6.78;;
63120;SDS011;54478;48.684;20.114;2023-05-15T15:22:53;11.30;;;7.75;;
63120;SDS011;54478;48.684;20.114;2023-05-15T15:25:22;17.55;;;8.57;;
63120;SDS011;54478;48.684;20.114;2023-05-15T15:27:51;11.52;;;8.68;;
63120;SDS011;54478;48.684;20.114;2023-05-15T15:30:19;14.68;;;9.15;;
63120;SDS011;54478;48.684;20.114;2023-05-15T15:32:44;11.23;;;7.88;;
63120;SDS011;54478;48.684;20.114;2023-05-15T15:35:13;9.68;;;7.00;;
63120;SDS011;54478;48.684;20.114;2023-05-15T15:37:41;12.20;;;7.50;;
63120;SDS011;54478;48.684;20.114;2023-05-15T15:40:07;10.65;;;7.38;;
63120;SDS011;54478;48.684;20.114;2023-05-15T15:42:35;12.80;;;7.97;;
63120;SDS011;54478;48.684;20.114;2023-05-15T15:45:01;9.32;;;6.53;;
63120;SDS011;54478;48.684;20.114;2023-05-15T15:47:29;9.38;;;6.82;;
63120;SDS011;54478;48.684;20.114;2023-05-15T15:49:58;13.02;;;7.97;;
63120;SDS011;54478;48.684;20.114;2023-05-15T15:52:27;11.07;;;7.75;;
63120;SDS011;54478;48.684;20.114;2023-05-15T15:54:52;11.77;;;7.70;;
63120;SDS011;54478;48.684;20.114;2023-05-15T15:57:20;10.30;;;7.10;;
63120;SDS011;54478;48.684;20.114;2023-05-15T15:59:49;14.30;;;7.95;;
63120;SDS011;54478;48.684;20.114;2023-05-15T16:02:17;14.73;;;8.23;;
63120;SDS011;54478;48.684;20.114;2023-05-15T16:04:46;12.65;;;7.47;;
63120;SDS011;54478;48.684;20.114;2023-05-15T16:07:14;14.27;;;7.72;;
63120;SDS011;54478;48.684;20.114;2023-05-15T16:09:42;14.60;;;8.15;;
63120;SDS011;54478;48.684;20.114;2023-05-15T16:12:11;11.88;;;7.85;;
63120;SDS011;54478;48.684;20.114;2023-05-15T16:14:39;13.73;;;8.60;;
63120;SDS011;54478;48.684;20.114;2023-05-15T16:17:07;12.85;;;8.35;;
63120;SDS011;54478;48.684;20.114;2023-05-15T16:19:36;12.02;;;8.13;;
63120;SDS011;54478;48.684;20.114;2023-05-15T16:22:04;15.02;;;11.93;;
63120;SDS011;54478;48.684;20.114;2023-05-15T16:24:32;11.13;;;7.43;;
63120;SDS011;54478;48.684;20.114;2023-05-15T16:27:02;12.77;;;7.80;;
63120;SDS011;54478;48.684;20.114;2023-05-15T16:29:31;11.80;;;6.75;;
63120;SDS011;54478;48.684;20.114;2023-05-15T16:31:59;9.02;;;6.90;;
63120;SDS011;54478;48.684;20.114;2023-05-15T16:34:28;11.95;;;6.90;;
63120;SDS011;54478;48.684;20.114;2023-05-15T16:36:56;9.85;;;6.80;;
63120;SDS011;54478;48.684;20.114;2023-05-15T16:39:24;12.30;;;7.13;;
63120;SDS011;54478;48.684;20.114;2023-05-15T16:41:53;10.55;;;7.20;;
63120;SDS011;54478;48.684;20.114;2023-05-15T16:44:21;14.95;;;8.45;;
63120;SDS011;54478;48.684;20.114;2023-05-15T16:46:49;16.70;;;8.48;;
63120;SDS011;54478;48.684;20.114;2023-05-15T16:49:18;14.52;;;8.40;;
63120;SDS011;54478;48.684;20.114;2023-05-15T16:51:46;19.02;;;9.43;;
63120;SDS011;54478;48.684;20.114;2023-05-15T16:54:11;17.30;;;9.65;;
63120;SDS011;54478;48.684;20.114;2023-05-15T16:56:40;16.10;;;9.25;;
63120;SDS011;54478;48.684;20.114;2023-05-15T16:59:08;12.23;;;8.45;;
63120;SDS011;54478;48.684;20.114;2023-05-15T17:01:36;11.02;;;6.47;;
63120;SDS011;54478;48.684;20.114;2023-05-15T17:04:05;10.80;;;6.50;;
63120;SDS011;54478;48.684;20.114;2023-05-15T17:06:34;9.13;;;6.50;;
63120;SDS011;54478;48.684;20.114;2023-05-15T17:09:02;11.52;;;6.55;;
63120;SDS011;54478;48.684;20.114;2023-05-15T17:11:30;9.98;;;6.57;;
63120;SDS011;54478;48.684;20.114;2023-05-15T17:13:59;12.48;;;6.45;;
63120;SDS011;54478;48.684;20.114;2023-05-15T17:16:27;9.13;;;6.25;;
63120;SDS011;54478;48.684;20.114;2023-05-15T17:18:56;12.77;;;6.93;;
63120;SDS011;54478;48.684;20.114;2023-05-15T17:21:24;11.18;;;7.95;;
63120;SDS011;54478;48.684;20.114;2023-05-15T17:23:52;14.32;;;9.45;;
63120;SDS011;54478;48.684;20.114;2023-05-15T17:26:21;13.38;;;8.82;;
63120;SDS011;54478;48.684;20.114;2023-05-15T17:28:50;16.50;;;10.25;;
63120;SDS011;54478;48.684;20.114;2023-05-15T17:31:18;18.42;;;11.82;;
63120;SDS011;54478;48.684;20.114;2023-05-15T17:33:47;17.40;;;11.43;;
63120;SDS011;54478;48.684;20.114;2023-05-15T17:36:15;18.40;;;9.20;;
63120;SDS011;54478;48.684;20.114;2023-05-15T17:38:44;15.82;;;10.48;;
63120;SDS011;54478;48.684;20.114;2023-05-15T17:41:12;17.45;;;10.10;;
63120;SDS011;54478;48.684;20.114;2023-05-15T17:43:41;14.00;;;9.68;;
63120;SDS011;54478;48.684;20.114;2023-05-15T17:46:09;17.98;;;10.88;;
63120;SDS011;54478;48.684;20.114;2023-05-15T17:48:37;16.75;;;10.15;;
63120;SDS011;54478;48.684;20.114;2023-05-15T17:51:05;18.55;;;10.73;;
63120;SDS011;54478;48.684;20.114;2023-05-15T17:53:34;20.67;;;11.48;;
63120;SDS011;54478;48.684;20.114;2023-05-15T17:56:02;16.05;;;9.70;;
63120;SDS011;54478;48.684;20.114;2023-05-15T17:58:31;16.25;;;10.10;;
63120;SDS011;54478;48.684;20.114;2023-05-15T18:00:59;17.95;;;9.95;;
63120;SDS011;54478;48.684;20.114;2023-05-15T18:03:28;20.38;;;10.57;;
63120;SDS011;54478;48.684;20.114;2023-05-15T18:05:57;23.42;;;12.35;;
63120;SDS011;54478;48.684;20.114;2023-05-15T18:08:25;16.20;;;9.95;;
63120;SDS011;54478;48.684;20.114;2023-05-15T18:10:54;15.25;;;9.18;;
63120;SDS011;54478;48.684;20.114;2023-05-15T18:13:22;17.13;;;10.60;;
63120;SDS011;54478;48.684;20.114;2023-05-15T18:15:50;15.73;;;8.77;;
63120;SDS011;54478;48.684;20.114;2023-05-15T18:18:19;15.80;;;8.95;;
63120;SDS011;54478;48.684;20.114;2023-05-15T18:20:47;22.00;;;10.32;;
63120;SDS011;54478;48.684;20.114;2023-05-15T18:23:16;16.95;;;10.75;;
63120;SDS011;54478;48.684;20.114;2023-05-15T18:25:46;14.52;;;9.35;;
63120;SDS011;54478;48.684;20.114;2023-05-15T18:28:15;19.48;;;11.43;;
63120;SDS011;54478;48.684;20.114;2023-05-15T18:30:43;17.05;;;10.35;;
63120;SDS011;54478;48.684;20.114;2023-05-15T18:33:12;16.02;;;10.40;;
63120;SDS011;54478;48.684;20.114;2023-05-15T18:35:40;15.68;;;9.60;;
63120;SDS011;54478;48.684;20.114;2023-05-15T18:38:08;14.88;;;9.18;;
63120;SDS011;54478;48.684;20.114;2023-05-15T18:40:37;16.17;;;9.57;;
63120;SDS011;54478;48.684;20.114;2023-05-15T18:43:05;15.43;;;9.30;;
63120;SDS011;54478;48.684;20.114;2023-05-15T18:45:34;17.63;;;10.68;;
63120;SDS011;54478;48.684;20.114;2023-05-15T18:48:02;17.42;;;10.60;;
63120;SDS011;54478;48.684;20.114;2023-05-15T18:50:31;16.20;;;11.23;;
63120;SDS011;54478;48.684;20.114;2023-05-15T18:52:59;17.40;;;11.05;;
63120;SDS011;54478;48.684;20.114;2023-05-15T18:55:25;20.88;;;11.75;;
63120;SDS011;54478;48.684;20.114;2023-05-15T18:57:56;17.10;;;10.75;;
63120;SDS011;54478;48.684;20.114;2023-05-15T19:00:25;14.75;;;10.13;;
63120;SDS011;54478;48.684;20.114;2023-05-15T19:02:53;13.82;;;9.10;;
63120;SDS011;54478;48.684;20.114;2023-05-15T19:05:21;11.63;;;8.35;;
63120;SDS011;54478;48.684;20.114;2023-05-15T19:07:50;17.85;;;9.18;;
63120;SDS011;54478;48.684;20.114;2023-05-15T19:10:18;14.75;;;9.50;;
63120;SDS011;54478;48.684;20.114;2023-05-15T19:12:46;17.35;;;10.02;;
63120;SDS011;54478;48.684;20.114;2023-05-15T19:15:15;14.77;;;9.32;;
63120;SDS011;54478;48.684;20.114;2023-05-15T19:17:45;14.50;;;8.85;;
63120;SDS011;54478;48.684;20.114;2023-05-15T19:20:13;12.25;;;8.43;;
63120;SDS011;54478;48.684;20.114;2023-05-15T19:22:41;14.02;;;8.98;;
63120;SDS011;54478;48.684;20.114;2023-05-15T19:25:10;15.95;;;9.20;;
63120;SDS011;54478;48.684;20.114;2023-05-15T19:27:38;13.50;;;8.57;;
63120;SDS011;54478;48.684;20.114;2023-05-15T19:30:07;12.85;;;8.75;;
63120;SDS011;54478;48.684;20.114;2023-05-15T19:32:37;14.63;;;9.45;;
63120;SDS011;54478;48.684;20.114;2023-05-15T19:35:05;13.10;;;8.40;;
63120;SDS011;54478;48.684;20.114;2023-05-15T19:37:34;13.40;;;8.90;;
63120;SDS011;54478;48.684;20.114;2023-05-15T19:40:03;13.18;;;9.50;;
63120;SDS011;54478;48.684;20.114;2023-05-15T19:42:33;15.48;;;9.73;;
63120;SDS011;54478;48.684;20.114;2023-05-15T19:45:01;19.55;;;9.93;;
63120;SDS011;54478;48.684;20.114;2023-05-15T19:47:29;16.35;;;9.77;;
63120;SDS011;54478;48.684;20.114;2023-05-15T19:49:57;12.38;;;8.43;;
63120;SDS011;54478;48.684;20.114;2023-05-15T19:52:26;12.48;;;8.15;;
63120;SDS011;54478;48.684;20.114;2023-05-15T19:54:51;13.30;;;9.57;;
63120;SDS011;54478;48.684;20.114;2023-05-15T19:57:19;14.25;;;9.38;;
63120;SDS011;54478;48.684;20.114;2023-05-15T19:59:47;17.33;;;9.85;;
63120;SDS011;54478;48.684;20.114;2023-05-15T20:02:16;13.80;;;9.63;;
63120;SDS011;54478;48.684;20.114;2023-05-15T20:04:44;17.65;;;10.55;;
63120;SDS011;54478;48.684;20.114;2023-05-15T20:07:13;16.55;;;9.82;;
63120;SDS011;54478;48.684;20.114;2023-05-15T20:09:41;17.83;;;10.63;;
63120;SDS011;54478;48.684;20.114;2023-05-15T20:12:09;18.45;;;10.52;;
63120;SDS011;54478;48.684;20.114;2023-05-15T20:14:38;14.02;;;9.43;;
63120;SDS011;54478;48.684;20.114;2023-05-15T20:17:06;16.25;;;10.10;;
63120;SDS011;54478;48.684;20.114;2023-05-15T20:19:34;14.77;;;9.02;;
63120;SDS011;54478;48.684;20.114;2023-05-15T20:22:02;16.25;;;9.88;;
63120;SDS011;54478;48.684;20.114;2023-05-15T20:24:31;15.13;;;10.48;;
63120;SDS011;54478;48.684;20.114;2023-05-15T20:26:59;17.52;;;11.60;;
63120;SDS011;54478;48.684;20.114;2023-05-15T20:29:27;18.73;;;12.15;;
63120;SDS011;54478;48.684;20.114;2023-05-15T20:31:56;19.20;;;12.73;;
63120;SDS011;54478;48.684;20.114;2023-05-15T20:34:24;20.08;;;11.90;;
63120;SDS011;54478;48.684;20.114;2023-05-15T20:36:53;18.20;;;12.20;;
63120;SDS011;54478;48.684;20.114;2023-05-15T20:39:22;15.75;;;11.60;;
63120;SDS011;54478;48.684;20.114;2023-05-15T20:41:51;16.42;;;11.52;;
63120;SDS011;54478;48.684;20.114;2023-05-15T20:44:19;18.38;;;11.27;;
63120;SDS011;54478;48.684;20.114;2023-05-15T20:46:48;18.88;;;11.90;;
63120;SDS011;54478;48.684;20.114;2023-05-15T20:49:16;17.35;;;12.07;;
63120;SDS011;54478;48.684;20.114;2023-05-15T20:51:45;19.38;;;12.25;;
63120;SDS011;54478;48.684;20.114;2023-05-15T20:54:12;19.90;;;13.50;;
63120;SDS011;54478;48.684;20.114;2023-05-15T20:56:42;21.65;;;13.48;;
63120;SDS011;54478;48.684;20.114;2023-05-15T20:59:10;24.80;;;13.95;;
63120;SDS011;54478;48.684;20.114;2023-05-15T21:01:38;26.65;;;13.25;;
63120;SDS011;54478;48.684;20.114;2023-05-15T21:04:06;17.63;;;11.85;;
63120;SDS011;54478;48.684;20.114;2023-05-15T21:06:35;21.88;;;10.65;;
63120;SDS011;54478;48.684;20.114;2023-05-15T21:09:03;17.50;;;10.88;;
63120;SDS011;54478;48.684;20.114;2023-05-15T21:11:32;19.33;;;11.45;;
63120;SDS011;54478;48.684;20.114;2023-05-15T21:14:00;16.92;;;9.55;;
63120;SDS011;54478;48.684;20.114;2023-05-15T21:16:28;14.73;;;8.95;;
63120;SDS011;54478;48.684;20.114;2023-05-15T21:18:56;15.43;;;8.57;;
63120;SDS011;54478;48.684;20.114;2023-05-15T21:21:24;14.48;;;8.82;;
63120;SDS011;54478;48.684;20.114;2023-05-15T21:23:53;14.85;;;10.40;;
63120;SDS011;54478;48.684;20.114;2023-05-15T21:26:21;18.70;;;10.13;;
63120;SDS011;54478;48.684;20.114;2023-05-15T21:28:49;16.70;;;9.30;;
63120;SDS011;54478;48.684;20.114;2023-05-15T21:31:18;15.63;;;9.60;;
63120;SDS011;54478;48.684;20.114;2023-05-15T21:33:46;12.35;;;8.15;;
63120;SDS011;54478;48.684;20.114;2023-05-15T21:36:14;13.13;;;8.90;;
63120;SDS011;54478;48.684;20.114;2023-05-15T21:38:42;16.58;;;8.93;;
63120;SDS011;54478;48.684;20.114;2023-05-15T21:41:11;14.25;;;7.25;;
63120;SDS011;54478;48.684;20.114;2023-05-15T21:43:39;10.82;;;7.38;;
63120;SDS011;54478;48.684;20.114;2023-05-15T21:46:08;12.13;;;8.13;;
63120;SDS011;54478;48.684;20.114;2023-05-15T21:48:36;12.90;;;6.85;;
63120;SDS011;54478;48.684;20.114;2023-05-15T21:51:04;10.00;;;7.10;;
63120;SDS011;54478;48.684;20.114;2023-05-15T21:53:33;11.07;;;6.82;;
63120;SDS011;54478;48.684;20.114;2023-05-15T21:56:01;9.32;;;5.90;;
63120;SDS011;54478;48.684;20.114;2023-05-15T21:58:30;9.35;;;6.22;;
63120;SDS011;54478;48.684;20.114;2023-05-15T22:00:59;10.25;;;6.07;;
63120;SDS011;54478;48.684;20.114;2023-05-15T22:03:27;10.82;;;6.72;;
63120;SDS011;54478;48.684;20.114;2023-05-15T22:05:56;10.90;;;6.40;;
63120;SDS011;54478;48.684;20.114;2023-05-15T22:08:24;9.85;;;5.68;;
63120;SDS011;54478;48.684;20.114;2023-05-15T22:10:52;9.07;;;5.82;;
63120;SDS011;54478;48.684;20.114;2023-05-15T22:13:20;11.15;;;6.60;;
63120;SDS011;54478;48.684;20.114;2023-05-15T22:15:49;9.20;;;6.60;;
63120;SDS011;54478;48.684;20.114;2023-05-15T22:18:17;8.35;;;5.20;;
63120;SDS011;54478;48.684;20.114;2023-05-15T22:20:46;8.05;;;5.68;;
63120;SDS011;54478;48.684;20.114;2023-05-15T22:23:15;10.52;;;6.13;;
63120;SDS011;54478;48.684;20.114;2023-05-15T22:25:44;9.80;;;6.00;;
63120;SDS011;54478;48.684;20.114;2023-05-15T22:28:12;7.32;;;5.32;;
63120;SDS011;54478;48.684;20.114;2023-05-15T22:30:40;8.43;;;5.05;;
63120;SDS011;54478;48.684;20.114;2023-05-15T22:33:08;7.97;;;5.03;;
63120;SDS011;54478;48.684;20.114;2023-05-15T22:35:37;8.23;;;4.65;;
63120;SDS011;54478;48.684;20.114;2023-05-15T22:38:05;6.45;;;4.55;;
63120;SDS011;54478;48.684;20.114;2023-05-15T22:40:34;7.13;;;5.35;;
63120;SDS011;54478;48.684;20.114;2023-05-15T22:43:02;8.10;;;4.78;;
63120;SDS011;54478;48.684;20.114;2023-05-15T22:45:30;8.57;;;5.50;;
63120;SDS011;54478;48.684;20.114;2023-05-15T22:47:59;6.70;;;4.70;;
63120;SDS011;54478;48.684;20.114;2023-05-15T22:50:28;11.07;;;5.53;;
63120;SDS011;54478;48.684;20.114;2023-05-15T22:52:56;6.95;;;4.78;;
63120;SDS011;54478;48.684;20.114;2023-05-15T22:55:22;8.63;;;5.10;;
63120;SDS011;54478;48.684;20.114;2023-05-15T22:57:50;10.30;;;5.55;;
63120;SDS011;54478;48.684;20.114;2023-05-15T23:00:19;11.73;;;5.00;;
63120;SDS011;54478;48.684;20.114;2023-05-15T23:02:47;9.88;;;5.38;;
63120;SDS011;54478;48.684;20.114;2023-05-15T23:05:16;6.63;;;4.80;;
63120;SDS011;54478;48.684;20.114;2023-05-15T23:07:44;8.15;;;5.28;;
63120;SDS011;54478;48.684;20.114;2023-05-15T23:10:12;9.85;;;5.00;;
63120;SDS011;54478;48.684;20.114;2023-05-15T23:12:41;7.57;;;5.07;;
63120;SDS011;54478;48.684;20.114;2023-05-15T23:15:09;13.02;;;5.32;;
63120;SDS011;54478;48.684;20.114;2023-05-15T23:17:38;6.97;;;4.55;;
63120;SDS011;54478;48.684;20.114;2023-05-15T23:20:07;7.40;;;5.22;;
63120;SDS011;54478;48.684;20.114;2023-05-15T23:22:39;7.43;;;4.38;;
63120;SDS011;54478;48.684;20.114;2023-05-15T23:25:08;5.68;;;4.00;;
63120;SDS011;54478;48.684;20.114;2023-05-15T23:27:36;7.65;;;4.68;;
63120;SDS011;54478;48.684;20.114;2023-05-15T23:30:05;5.75;;;4.35;;
63120;SDS011;54478;48.684;20.114;2023-05-15T23:32:33;10.63;;;5.10;;
63120;SDS011;54478;48.684;20.114;2023-05-15T23:35:02;9.75;;;3.85;;
63120;SDS011;54478;48.684;20.114;2023-05-15T23:37:28;7.22;;;4.60;;
63120;SDS011;54478;48.684;20.114;2023-05-15T23:39:54;6.97;;;4.45;;
63120;SDS011;54478;48.684;20.114;2023-05-15T23:42:23;12.60;;;4.72;;
63120;SDS011;54478;48.684;20.114;2023-05-15T23:44:51;6.80;;;4.32;;
63120;SDS011;54478;48.684;20.114;2023-05-15T23:47:19;8.93;;;4.45;;
63120;SDS011;54478;48.684;20.114;2023-05-15T23:49:48;5.57;;;4.30;;
63120;SDS011;54478;48.684;20.114;2023-05-15T23:52:16;6.13;;;4.80;;
63120;SDS011;54478;48.684;20.114;2023-05-15T23:54:41;10.05;;;4.40;;
63120;SDS011;54478;48.684;20.114;2023-05-15T23:57:10;7.88;;;4.60;;
63120;SDS011;54478;48.684;20.114;2023-05-15T23:59:38;6.50;;;4.32;;
